createdAt,value
2023-05-11T00:02:10.095Z,17.7
2023-05-11T00:07:40.532Z,19.9
2023-05-11T00:12:22.828Z,17.9
2023-05-11T00:19:05.629Z,18.6
2023-05-11T00:27:43.568Z,43.2
2023-05-11T00:33:13.971Z,23.2
2023-05-11T00:37:56.349Z,21.2
2023-05-11T00:43:56.875Z,30.4
2023-05-11T00:48:10.296Z,27.2
2023-05-11T00:53:20.690Z,20.9
2023-05-11T00:58:23.063Z,20.5
2023-05-11T01:03:29.635Z,20.5
2023-05-11T01:08:55.846Z,23.9
2023-05-11T01:13:42.175Z,21.7
2023-05-11T01:18:38.631Z,20.7
2023-05-11T01:24:53.088Z,38.5
2023-05-11T01:29:25.520Z,20.7
2023-05-11T01:34:07.993Z,19.8
2023-05-11T01:39:34.418Z,25.3
2023-05-11T01:44:24.301Z,23.1
2023-05-11T01:49:30.784Z,22.8
2023-05-11T01:55:00.948Z,27.2
2023-05-11T01:59:47.290Z,25.8
2023-05-11T02:04:54.905Z,21.8
2023-05-11T02:11:18.456Z,23.6
2023-05-11T02:16:25.964Z,21.7
2023-05-11T02:21:32.321Z,24.8
2023-05-11T02:26:40.848Z,23.6
2023-05-11T02:32:11.279Z,24.8
2023-05-11T02:36:53.646Z,18.7
2023-05-11T02:41:59.991Z,22.2
2023-05-11T02:47:26.447Z,23.9
2023-05-11T02:53:42.140Z,20.2
2023-05-11T02:57:42.335Z,35.3
2023-05-11T03:02:50.626Z,24.8
2023-05-11T03:07:37.966Z,29.6
2023-05-11T03:12:44.363Z,22.7
2023-05-11T03:18:14.774Z,19.1
2023-05-11T03:22:57.120Z,24.3
2023-05-11T03:28:27.588Z,20.6
2023-05-11T03:33:09.936Z,27.6
2023-05-11T03:38:06.249Z,24.9
2023-05-11T03:43:22.653Z,21.9
2023-05-11T03:48:29.058Z,24.7
2023-05-11T03:53:25.416Z,19.8
2023-05-11T03:58:41.792Z,31.7
2023-05-11T04:03:48.453Z,25.9
2023-05-11T04:08:54.549Z,27.8
2023-05-11T04:14:00.935Z,23.5
2023-05-11T04:19:31.409Z,22.8
2023-05-11T04:24:13.708Z,27.5
2023-05-11T04:29:44.146Z,39.1
2023-05-11T04:34:26.483Z,33.4
2023-05-11T04:39:32.899Z,35.2
2023-05-11T04:44:58.295Z,26.5
2023-05-11T04:50:05.809Z,34.0
2023-05-11T04:54:55.755Z,34.0
2023-05-11T05:00:02.182Z,35.0
2023-05-11T05:05:32.554Z,27.2
2023-05-11T05:10:38.974Z,28.2
2023-05-11T05:15:11.245Z,27.4
2023-05-11T05:20:27.686Z,29.2
2023-05-11T05:25:34.110Z,26.7
2023-05-11T05:30:40.667Z,30.1
2023-05-11T05:36:20.941Z,21.0
2023-05-11T05:41:13.291Z,33.0
2023-05-11T05:45:59.850Z,24.8
2023-05-11T05:50:56.174Z,31.5
2023-05-11T05:56:20.601Z,31.2
2023-05-11T06:01:18.976Z,30.8
2023-05-11T06:06:25.328Z,24.0
2023-05-11T06:11:21.722Z,30.4
2023-05-11T06:16:39.334Z,30.7
2023-05-11T06:21:46.726Z,27.5
2023-05-11T06:26:43.210Z,26.6
2023-05-11T06:31:49.672Z,30.3
2023-05-11T06:37:05.997Z,23.3
2023-05-11T06:42:04.325Z,27.2
2023-05-11T06:47:18.784Z,23.9
2023-05-11T06:52:49.432Z,22.4
2023-05-11T06:57:21.719Z,22.7
2023-05-11T07:02:58.269Z,23.6
2023-05-11T07:07:44.728Z,21.0
2023-05-11T07:12:51.100Z,19.2
2023-05-11T07:18:11.568Z,20.7
2023-05-11T07:23:03.874Z,28.7
2023-05-11T07:28:10.260Z,20.9
2023-05-11T07:33:16.771Z,23.3
2023-05-11T07:38:48.201Z,20.0
2023-05-11T07:43:32.095Z,26.2
2023-05-11T07:48:38.493Z,19.7
2023-05-11T07:54:04.893Z,18.0
2023-05-11T07:58:51.222Z,20.5
2023-05-11T08:03:57.630Z,20.0
2023-05-11T08:09:03.991Z,16.1
2023-05-11T08:14:00.486Z,18.2
2023-05-11T08:19:17.035Z,16.0
2023-05-11T08:24:23.561Z,15.2
2023-05-11T08:29:29.857Z,18.1
2023-05-11T08:34:36.357Z,18.4
2023-05-11T08:39:46.670Z,15.4
2023-05-11T08:44:48.026Z,16.6
2023-05-11T08:49:55.416Z,17.6
2023-05-11T08:55:01.777Z,16.9
2023-05-11T09:00:32.195Z,16.0
2023-05-11T09:05:14.572Z,16.0
2023-05-11T09:10:13.686Z,15.8
2023-05-11T09:15:17.534Z,13.6
2023-05-11T09:20:33.838Z,12.4
2023-05-11T09:25:30.172Z,13.2
2023-05-11T09:30:48.186Z,12.2
2023-05-11T09:36:18.684Z,12.6
2023-05-11T09:41:01.025Z,12.4
2023-05-11T09:46:07.863Z,11.7
2023-05-11T09:51:13.825Z,12.8
2023-05-11T09:56:20.403Z,12.1
2023-05-11T10:01:16.739Z,13.3
2023-05-11T10:06:33.122Z,13.0
2023-05-11T10:11:41.696Z,12.2
2023-05-11T10:16:38.146Z,12.1
2023-05-11T10:21:53.471Z,13.8
2023-05-11T10:27:00.850Z,12.5
2023-05-11T10:32:21.540Z,14.8
2023-05-11T10:37:57.692Z,12.8
2023-05-11T10:42:09.991Z,11.9
2023-05-11T10:47:25.462Z,13.6
2023-05-11T10:52:36.615Z,12.1
2023-05-11T10:57:33.819Z,12.4
2023-05-11T11:02:39.410Z,12.2
2023-05-11T11:07:55.795Z,12.8
2023-05-11T11:13:02.193Z,12.6
2023-05-11T11:18:08.582Z,12.7
2023-05-11T11:23:14.934Z,13.8
2023-05-11T11:28:21.352Z,13.6
2023-05-11T11:33:17.829Z,13.9
2023-05-11T11:38:34.301Z,12.4
2023-05-11T11:43:41.265Z,16.8
2023-05-11T11:48:37.582Z,13.6
2023-05-11T11:53:53.977Z,12.8
2023-05-11T11:58:50.367Z,13.1
2023-05-11T12:04:06.828Z,12.9
2023-05-11T12:09:06.174Z,13.3
2023-05-11T12:14:24.156Z,14.2
2023-05-11T12:19:30.597Z,16.8
2023-05-11T12:24:36.992Z,14.6
2023-05-11T12:29:43.416Z,14.7
2023-05-11T12:34:49.763Z,14.2
2023-05-11T12:39:56.138Z,17.3
2023-05-11T12:45:26.589Z,12.7
2023-05-11T12:50:08.902Z,12.6
2023-05-11T12:55:15.283Z,14.5
2023-05-11T13:00:11.652Z,13.3
2023-05-11T13:05:28.095Z,12.8
2023-05-11T13:10:34.443Z,18.4
2023-05-11T13:15:40.838Z,14.7
2023-05-11T13:25:52.551Z,13.0
2023-05-11T13:31:01.724Z,12.7
2023-05-11T13:35:57.930Z,13.7
2023-05-11T13:41:53.140Z,14.2
2023-05-11T13:46:22.298Z,12.9
2023-05-11T13:51:28.635Z,24.0
2023-05-11T13:56:25.093Z,15.5
2023-05-11T14:01:41.596Z,16.3
2023-05-11T14:06:47.979Z,15.3
2023-05-11T14:11:54.376Z,14.7
2023-05-11T14:17:00.954Z,30.8
2023-05-11T14:22:07.127Z,12.9
2023-05-11T14:27:13.510Z,13.0
2023-05-11T14:32:19.943Z,13.8
2023-05-11T14:37:26.278Z,15.8
2023-05-11T14:42:22.780Z,13.1
2023-05-11T14:47:39.317Z,14.5
2023-05-11T14:52:45.633Z,16.1
2023-05-11T14:57:52.064Z,13.8
2023-05-11T15:03:00.218Z,14.4
2023-05-11T15:08:15.330Z,12.8
2023-05-11T15:13:14.285Z,12.6
2023-05-11T15:18:20.926Z,13.8
2023-05-11T15:23:27.340Z,13.5
2023-05-11T15:28:33.733Z,15.7
2023-05-11T15:33:41.782Z,14.3
2023-05-11T15:38:48.087Z,14.8
2023-05-11T15:43:54.431Z,13.5
2023-05-11T15:49:01.042Z,14.4
2023-05-11T15:54:08.961Z,15.5
2023-05-11T15:59:15.323Z,18.0
2023-05-11T16:04:21.719Z,16.5
2023-05-11T16:09:28.072Z,15.0
2023-05-11T16:14:36.033Z,20.6
2023-05-11T16:19:43.626Z,20.0
2023-05-11T16:24:50.000Z,19.0
2023-05-11T16:29:56.487Z,19.4
2023-05-11T16:35:04.475Z,24.3
2023-05-11T16:40:10.811Z,20.5
2023-05-11T16:45:18.739Z,18.8
2023-05-11T16:50:25.156Z,23.4
2023-05-11T16:55:21.462Z,20.2
2023-05-11T17:05:46.967Z,20.5
2023-05-11T17:10:54.312Z,24.7
2023-05-11T17:16:00.837Z,23.1
2023-05-11T17:21:08.935Z,23.7
2023-05-11T17:26:15.257Z,26.7
2023-05-11T17:31:21.765Z,26.6
2023-05-11T17:36:28.225Z,24.4
2023-05-11T17:41:36.148Z,29.0
2023-05-11T17:46:43.135Z,17.7
2023-05-11T17:51:49.538Z,26.7
2023-05-11T17:56:55.877Z,21.8
2023-05-11T18:02:02.277Z,45.8
2023-05-11T18:07:08.812Z,25.2
2023-05-11T18:12:16.745Z,31.0
2023-05-11T18:17:23.125Z,22.4
2023-05-11T18:22:29.554Z,36.7
2023-05-11T18:27:35.917Z,25.4
2023-05-11T18:32:43.980Z,21.7
2023-05-11T18:37:50.294Z,20.7
2023-05-11T18:43:26.252Z,21.2
2023-05-11T18:48:05.797Z,23.1
2023-05-11T18:53:12.207Z,20.6
2023-05-11T18:58:18.630Z,17.5
2023-05-11T19:03:26.771Z,20.9
2023-05-11T19:08:32.999Z,18.4
2023-05-11T19:14:37.431Z,21.8
2023-05-11T19:19:46.024Z,17.8
2023-05-11T19:24:52.592Z,19.6
2023-05-11T19:29:58.874Z,20.4
2023-05-11T19:35:05.242Z,19.9
2023-05-11T19:40:55.755Z,17.3
2023-05-11T19:45:38.065Z,17.7
2023-05-11T19:50:24.921Z,18.7
2023-05-11T19:55:30.905Z,17.3
2023-05-11T20:00:57.345Z,19.0
2023-05-11T20:05:43.688Z,22.2
2023-05-11T20:10:54.116Z,18.2
2023-05-11T20:16:16.649Z,17.2
2023-05-11T20:21:02.875Z,17.7
2023-05-11T20:26:09.314Z,17.5
2023-05-11T20:31:16.877Z,19.5
2023-05-11T20:36:23.251Z,18.1
2023-05-11T20:41:19.582Z,25.5
2023-05-11T20:47:15.072Z,19.8
2023-05-11T20:51:41.517Z,22.1
2023-05-11T20:56:38.740Z,17.1
2023-05-11T21:01:55.279Z,21.9
2023-05-11T21:07:01.638Z,20.1
2023-05-11T21:12:32.069Z,20.9
2023-05-11T21:17:18.721Z,23.2
2023-05-11T21:22:20.812Z,26.4
2023-05-11T21:27:27.257Z,23.8
2023-05-11T21:32:34.212Z,23.2
2023-05-11T21:37:40.609Z,20.5
2023-05-11T21:42:46.951Z,19.0
2023-05-11T21:48:45.436Z,21.6
2023-05-11T21:52:59.736Z,22.4
2023-05-11T21:58:06.199Z,25.8
2023-05-11T22:03:49.848Z,32.7
2023-05-11T22:09:21.199Z,22.3
2023-05-11T22:14:03.514Z,24.1
2023-05-11T22:20:20.444Z,26.7
2023-05-11T22:24:55.386Z,32.0
2023-05-11T22:29:21.733Z,25.1
2023-05-11T22:34:29.166Z,25.1
2023-05-11T22:39:36.682Z,26.9
2023-05-11T22:44:43.845Z,27.9
2023-05-11T22:49:50.215Z,24.4
2023-05-11T22:55:20.633Z,23.6
2023-05-11T23:00:27.033Z,29.1
2023-05-11T23:05:12.920Z,25.7
2023-05-11T23:10:19.550Z,26.3
2023-05-11T23:15:25.876Z,24.2
2023-05-11T23:20:32.397Z,23.5
2023-05-11T23:25:38.809Z,28.7
2023-05-11T23:30:45.180Z,26.6
2023-05-11T23:36:15.629Z,31.7
2023-05-11T23:40:57.937Z,28.3
2023-05-11T23:46:04.481Z,34.5
2023-05-11T23:51:10.969Z,40.5
2023-05-11T23:56:17.370Z,31.9
